CheckWX is a tool to help pilots better visualize weather data.  It is not intended as a substitute for an official pre-flight weather briefing.

05:40:11 UTC

K2DP METAR
Dare County Gunnery Range
North Carolina, USA
Current

24 mins ago

K2DP 150516Z AUTO 00000KT 1/2SM FG CLR 22/22 A3004 RMK AO2 VIS 1/2V4 SLPNO TSNO $
Observed
Jul-15 @ 05:16 UTC
Visibility
1/2 SM
Flight Rules
LIFR
Conditions
Fog
Cloud Levels
  • Clear skies
Temperature
22°C / 72°F
Dewpoint
22°C / 72°F
Humidity
100%
Altimeter
30.04" Hg
Pressure
1017.32 hPa
Previous

29 mins ago

K2DP 150511Z AUTO 00000KT 1 1/4SM BR CLR 23/23 A3004 RMK AO2 VIS 1 1/4V4 SLPNO TSNO $
Observed
Jul-15 @ 05:11 UTC
Visibility
1 1/4 SM
Flight Rules
IFR
Conditions
Mist
Cloud Levels
  • Clear skies
Temperature
23°C / 73°F
Dewpoint
23°C / 73°F
Humidity
100%
Altimeter
30.04" Hg
Pressure
1017.32 hPa
Previous

34 mins ago

K2DP 150506Z AUTO 00000KT 4SM BR CLR 23/23 A3004 RMK AO2 SLPNO TSNO $
Observed
Jul-15 @ 05:06 UTC
Visibility
4 SM
Flight Rules
MVFR
Conditions
Mist
Cloud Levels
  • Clear skies
Temperature
23°C / 73°F
Dewpoint
23°C / 73°F
Humidity
100%
Altimeter
30.04" Hg
Pressure
1017.32 hPa